Time;durP1;ratioP1;P1;durP2;ratioP2;P2;SDS_P1;SDS_P2;PMS_P1;PMS_P2;Temp;Humidity;BMP_temperature;BMP_pressure;BME280_temperature;BME280_humidity;BME280_pressure;Samples;Min_cycle;Max_cycle;Signal;HPM_P1;HPM_P2
2023/05/14 00:02:20;;;;;;;9.77;3.65;;;;;;;13.42;50.50;99811.22;7342470;19;20007;-76
2023/05/14 00:04:44;;;;;;;10.50;3.63;;;;;;;13.36;50.71;99805.47;7344778;19;20415;-77
2023/05/14 00:07:10;;;;;;;6.97;3.70;;;;;;;13.33;50.31;99811.94;7347562;19;20021;-78
2023/05/14 00:09:35;;;;;;;6.32;3.17;;;;;;;13.31;50.64;99818.41;7344310;19;20096;-76
2023/05/14 00:12:00;;;;;;;10.18;3.67;;;;;;;13.26;50.84;99817.91;7346011;19;20019;-76
2023/05/14 00:14:24;;;;;;;5.53;3.45;;;;;;;13.22;50.81;99816.44;7347334;19;20018;-75
2023/05/14 00:16:49;;;;;;;8.82;3.67;;;;;;;13.18;51.04;99818.53;7346029;19;20755;-75
2023/05/14 00:19:14;;;;;;;6.70;4.00;;;;;;;13.14;50.93;99813.50;7347622;19;20010;-76
2023/05/14 00:21:38;;;;;;;6.25;3.25;;;;;;;13.09;51.39;99814.69;7347749;19;20007;-76
2023/05/14 00:24:03;;;;;;;5.70;3.13;;;;;;;13.05;51.37;99818.59;7347424;19;20052;-74
2023/05/14 00:26:28;;;;;;;8.32;3.95;;;;;;;13.01;51.86;99816.28;7343220;19;20338;-72
2023/05/14 00:28:53;;;;;;;5.57;3.55;;;;;;;12.97;51.75;99820.19;7343107;19;20412;-71
2023/05/14 00:31:17;;;;;;;9.85;3.53;;;;;;;12.93;52.27;99810.69;7342283;19;20082;-78
2023/05/14 00:33:42;;;;;;;6.00;3.40;;;;;;;12.92;52.59;99820.53;7345882;19;20025;-71
2023/05/14 00:36:07;;;;;;;9.63;3.58;;;;;;;12.89;52.41;99819.91;7341992;19;20011;-72
2023/05/14 00:38:32;;;;;;;9.80;4.03;;;;;;;12.85;52.17;99823.81;7344718;19;20023;-80
2023/05/14 00:40:56;;;;;;;6.95;3.70;;;;;;;12.81;52.42;99822.34;7346176;19;20011;-76
2023/05/14 00:43:22;;;;;;;5.82;3.17;;;;;;;12.78;52.49;99825.25;7345131;19;20014;-71
2023/05/14 00:45:53;;;;;;;12.77;3.95;;;;;;;12.80;52.88;99834.00;7344396;19;20049;-71
2023/05/14 00:48:21;;;;;;;7.63;3.90;;;;;;;12.71;52.66;99823.06;7341353;19;20105;-71
2023/05/14 00:50:49;;;;;;;10.38;3.30;;;;;;;12.68;53.04;99825.97;7341144;19;20018;-75
2023/05/14 00:53:14;;;;;;;5.30;3.33;;;;;;;12.62;53.16;99825.59;7345041;19;20822;-71
2023/05/14 00:55:41;;;;;;;6.82;3.80;;;;;;;12.58;53.37;99834.81;7344567;19;20414;-75
2023/05/14 00:58:08;;;;;;;10.43;3.75;;;;;;;12.55;54.03;99829.69;7343763;19;20025;-77
2023/05/14 01:00:34;;;;;;;7.22;3.80;;;;;;;12.48;53.92;99829.31;7343244;19;20518;-70
2023/05/14 01:03:00;;;;;;;6.38;4.40;;;;;;;12.47;53.75;99848.16;7342810;19;20089;-72
2023/05/14 01:05:31;;;;;;;10.18;3.97;;;;;;;12.42;53.99;99840.47;7339387;19;20353;-75
2023/05/14 01:08:08;;;;;;;9.18;3.50;;;;;;;12.44;54.25;99843.88;7344691;19;20783;-73
2023/05/14 01:10:51;;;;;;;8.07;3.15;;;;;;;12.46;53.90;99841.09;7344688;19;20010;-73
2023/05/14 01:13:26;;;;;;;4.07;3.33;;;;;;;12.35;54.50;99845.44;7347185;19;20035;-72
2023/05/14 01:15:54;;;;;;;9.80;4.35;;;;;;;12.31;54.83;99849.31;7350101;19;20014;-71
2023/05/14 01:18:20;;;;;;;6.97;3.60;;;;;;;12.28;55.14;99843.38;7349754;19;20018;-77
2023/05/14 01:20:50;;;;;;;7.80;3.42;;;;;;;12.28;55.41;99846.03;7351294;19;20010;-71
2023/05/14 01:23:15;;;;;;;14.63;4.57;;;;;;;12.21;54.73;99844.78;7356172;19;20015;-80
2023/05/14 01:25:41;;;;;;;10.23;4.00;;;;;;;12.21;55.65;99850.13;7349949;19;20533;-65
2023/05/14 01:28:17;;;;;;;3.35;3.05;;;;;;;12.25;55.68;99844.44;7351043;19;20363;-74
2023/05/14 01:31:01;;;;;;;15.80;3.92;;;;;;;12.24;55.47;99849.91;7347635;19;20033;-74
2023/05/14 01:33:28;;;;;;;3.55;3.15;;;;;;;12.15;56.13;99851.44;7348093;19;20011;-69
2023/05/14 01:35:54;;;;;;;6.45;3.53;;;;;;;12.11;55.95;99854.44;7347264;19;20014;-74
2023/05/14 01:38:20;;;;;;;14.38;3.85;;;;;;;12.08;56.55;99852.00;7349904;19;20022;-73
2023/05/14 01:40:46;;;;;;;6.78;3.75;;;;;;;12.07;56.43;99861.00;7349757;19;20025;-73
2023/05/14 01:43:12;;;;;;;6.55;3.40;;;;;;;12.05;56.13;99857.59;7347072;19;20347;-74
2023/05/14 01:45:36;;;;;;;11.25;3.35;;;;;;;12.05;56.35;99866.47;7353082;19;20471;-76
2023/05/14 01:48:01;;;;;;;7.38;3.40;;;;;;;12.04;56.28;99866.56;7351328;19;20462;-75
2023/05/14 01:50:27;;;;;;;11.90;3.42;;;;;;;12.00;56.62;99856.09;7352452;19;20038;-78
2023/05/14 01:52:55;;;;;;;6.90;3.33;;;;;;;12.04;56.46;99866.56;7347113;19;20014;-71
2023/05/14 01:55:20;;;;;;;7.68;3.88;;;;;;;12.10;57.12;99868.78;7346308;19;20037;-70
2023/05/14 01:57:45;;;;;;;11.00;4.03;;;;;;;12.14;56.82;99862.25;7347887;19;20018;-66
2023/05/14 02:00:11;;;;;;;9.98;4.40;;;;;;;12.18;56.71;99869.06;7346172;19;20011;-68
2023/05/14 02:02:39;;;;;;;6.75;3.55;;;;;;;12.19;56.56;99870.78;7347132;19;20335;-69
2023/05/14 02:05:06;;;;;;;7.70;3.83;;;;;;;12.25;56.46;99870.31;7342873;19;20022;-73
2023/05/14 02:07:31;;;;;;;19.80;4.65;;;;;;;12.27;55.99;99869.25;7344825;19;20022;-71
2023/05/14 02:09:55;;;;;;;12.27;3.47;;;;;;;12.33;55.89;99874.09;7350487;19;20014;-71
2023/05/14 02:12:22;;;;;;;7.18;4.30;;;;;;;12.39;55.82;99867.47;7347405;19;20015;-76
2023/05/14 02:14:48;;;;;;;11.63;4.60;;;;;;;12.46;55.76;99874.03;7349196;19;20459;-76
2023/05/14 02:17:16;;;;;;;9.85;4.20;;;;;;;12.50;56.15;99862.16;7347975;19;20764;-78
2023/05/14 02:19:42;;;;;;;9.60;3.20;;;;;;;12.57;56.08;99866.06;7349610;19;20519;-78
2023/05/14 02:22:06;;;;;;;7.88;3.75;;;;;;;12.63;55.39;99865.63;7348230;19;20506;-77
2023/05/14 02:24:32;;;;;;;8.25;3.78;;;;;;;12.71;55.13;99870.38;7347147;19;20081;-78
2023/05/14 02:26:59;;;;;;;8.95;3.97;;;;;;;12.78;54.61;99871.59;7350662;19;20014;-77
2023/05/14 02:29:26;;;;;;;5.95;3.30;;;;;;;12.84;55.06;99880.97;7348005;19;20057;-80
2023/05/14 02:31:52;;;;;;;7.72;3.50;;;;;;;12.93;54.32;99878.44;7349015;19;20018;-77
2023/05/14 02:34:16;;;;;;;7.03;3.53;;;;;;;13.01;54.22;99885.88;7347988;19;20018;-74
2023/05/14 02:36:41;;;;;;;5.90;3.75;;;;;;;13.12;53.59;99887.69;7345895;19;20022;-72
2023/05/14 02:39:05;;;;;;;4.18;3.10;;;;;;;13.16;53.24;99887.38;7342989;19;20010;-70
2023/05/14 02:41:32;;;;;;;6.40;3.70;;;;;;;13.27;52.71;99890.06;7348940;19;20007;-68
2023/05/14 02:43:56;;;;;;;12.40;3.40;;;;;;;13.27;51.96;99894.56;7349811;19;20345;-66
2023/05/14 02:46:21;;;;;;;6.72;2.83;;;;;;;13.34;52.22;99885.94;7349691;19;20346;-69
2023/05/14 02:48:46;;;;;;;6.10;3.20;;;;;;;13.41;51.78;99889.84;7350381;19;20011;-67
2023/05/14 02:51:11;;;;;;;4.45;3.08;;;;;;;13.43;51.93;99890.56;7347624;19;20034;-71
2023/05/14 02:53:36;;;;;;;4.68;3.03;;;;;;;13.49;52.17;99891.91;7353176;19;20017;-72
2023/05/14 02:56:00;;;;;;;4.97;3.63;;;;;;;13.56;51.27;99894.94;7355182;19;20020;-70
2023/05/14 02:58:25;;;;;;;5.80;3.55;;;;;;;13.64;51.07;99895.19;7349258;19;20017;-66
2023/05/14 03:00:50;;;;;;;6.57;3.80;;;;;;;13.67;51.17;99901.13;7354185;19;20080;-69
2023/05/14 03:03:15;;;;;;;6.05;3.50;;;;;;;13.76;50.88;99894.22;7353800;19;20018;-68
2023/05/14 03:05:40;;;;;;;9.23;3.17;;;;;;;13.80;50.76;99914.41;7354138;19;20014;-66
2023/05/14 03:08:05;;;;;;;6.20;3.08;;;;;;;13.81;50.16;99898.22;7352771;19;20014;-68
2023/05/14 03:10:36;;;;;;;8.25;3.67;;;;;;;13.82;50.09;99894.56;7357549;19;20065;-66
2023/05/14 03:13:02;;;;;;;6.60;3.08;;;;;;;13.81;50.11;99902.72;7356609;19;20037;-68
2023/05/14 03:15:27;;;;;;;8.80;3.13;;;;;;;13.84;50.23;99902.47;7350854;19;20010;-66
2023/05/14 03:17:52;;;;;;;9.38;3.35;;;;;;;13.90;49.99;99906.47;7344354;19;20018;-68
2023/05/14 03:20:17;;;;;;;10.65;3.75;;;;;;;13.92;49.95;99908.06;7347703;19;20014;-66
2023/05/14 03:22:43;;;;;;;3.47;2.67;;;;;;;13.99;50.12;99911.97;7355867;19;20014;-67
2023/05/14 03:25:08;;;;;;;6.00;2.53;;;;;;;14.12;49.88;99906.44;7353328;19;20006;-66
2023/05/14 03:27:33;;;;;;;4.38;3.03;;;;;;;14.09;49.76;99904.88;7342663;19;20014;-67
2023/05/14 03:29:58;;;;;;;3.78;2.63;;;;;;;14.17;49.78;99912.28;7348692;19;20476;-66
2023/05/14 03:32:23;;;;;;;4.43;3.40;;;;;;;14.22;49.52;99914.59;7352198;19;20037;-68
2023/05/14 03:34:47;;;;;;;8.90;3.72;;;;;;;14.25;49.43;99914.31;7347419;19;20010;-66
2023/05/14 03:37:16;;;;;;;5.00;3.50;;;;;;;14.33;49.45;99903.84;7348996;19;20010;-67
2023/05/14 03:39:40;;;;;;;6.22;3.42;;;;;;;14.37;49.30;99910.63;7347818;19;20032;-67
2023/05/14 03:42:05;;;;;;;5.75;3.50;;;;;;;14.42;49.18;99908.47;7350528;19;20014;-67
2023/05/14 03:44:30;;;;;;;4.20;3.17;;;;;;;14.49;49.33;99906.97;7347597;19;20011;-68
2023/05/14 03:46:55;;;;;;;7.47;3.70;;;;;;;14.66;49.48;99917.16;7347756;19;20021;-67
2023/05/14 03:49:20;;;;;;;7.50;3.13;;;;;;;14.86;49.57;99921.69;7346382;19;20055;-67
2023/05/14 03:51:45;;;;;;;7.22;3.17;;;;;;;15.07;49.28;99918.16;7345740;19;20501;-67
2023/05/14 03:54:10;;;;;;;2.92;2.63;;;;;;;15.23;48.93;99918.53;7346286;19;20795;-70
2023/05/14 03:56:34;;;;;;;4.47;3.05;;;;;;;15.39;47.57;99918.03;7346849;19;20025;-68
2023/05/14 03:59:03;;;;;;;4.60;3.17;;;;;;;15.40;47.89;99923.28;7344249;19;20019;-67
2023/05/14 04:01:32;;;;;;;4.68;3.40;;;;;;;15.54;47.65;99928.34;7345098;19;20058;-68
2023/05/14 04:03:58;;;;;;;7.45;3.17;;;;;;;15.59;47.40;99925.25;7345466;19;20026;-67
2023/05/14 04:06:24;;;;;;;5.50;3.15;;;;;;;15.70;47.20;99925.16;7344237;19;20040;-67
2023/05/14 04:08:48;;;;;;;3.42;2.88;;;;;;;15.82;47.20;99928.59;7345860;19;20019;-67
2023/05/14 04:11:13;;;;;;;5.13;2.60;;;;;;;16.00;46.81;99924.28;7345203;19;20007;-71
2023/05/14 04:13:38;;;;;;;8.15;3.35;;;;;;;16.17;46.63;99931.69;7344410;19;20038;-70
2023/05/14 04:16:04;;;;;;;7.68;3.50;;;;;;;16.35;46.52;99926.50;7343572;19;20017;-69
2023/05/14 04:18:33;;;;;;;5.00;3.08;;;;;;;16.50;45.81;99925.06;7343027;19;20018;-69
2023/05/14 04:21:01;;;;;;;4.50;3.30;;;;;;;16.67;45.17;99920.88;7349269;19;20339;-67
2023/05/14 04:23:27;;;;;;;13.48;4.18;;;;;;;16.74;44.86;99915.75;7347325;19;20027;-70
2023/05/14 04:25:54;;;;;;;5.53;3.33;;;;;;;16.86;44.96;99928.09;7345367;19;20018;-69
2023/05/14 04:28:19;;;;;;;6.65;4.40;;;;;;;17.12;44.47;99923.81;7342667;19;20034;-67
2023/05/14 04:30:44;;;;;;;6.13;2.90;;;;;;;17.38;43.65;99922.16;7345116;19;20019;-68
2023/05/14 04:33:09;;;;;;;3.67;3.20;;;;;;;17.65;42.86;99926.81;7344112;19;20021;-69
2023/05/14 04:35:34;;;;;;;3.75;2.78;;;;;;;17.67;42.72;99929.38;7344752;19;20014;-67
2023/05/14 04:37:59;;;;;;;5.50;3.38;;;;;;;17.84;42.11;99925.88;7347607;19;20013;-67
2023/05/14 04:40:24;;;;;;;3.25;2.75;;;;;;;17.85;41.64;99924.88;7349491;19;20465;-70
2023/05/14 04:42:50;;;;;;;5.90;3.85;;;;;;;18.05;41.15;99920.25;7349785;19;20014;-69
2023/05/14 04:45:15;;;;;;;3.65;3.13;;;;;;;18.12;41.13;99921.34;7345583;19;20372;-70
2023/05/14 04:47:40;;;;;;;4.93;3.03;;;;;;;18.18;40.85;99930.66;7348759;19;20075;-68
2023/05/14 04:50:05;;;;;;;5.30;3.17;;;;;;;18.14;40.83;99927.44;7342560;19;20002;-67
2023/05/14 04:52:31;;;;;;;4.00;2.65;;;;;;;18.27;40.84;99936.03;7345036;19;20342;-68
2023/05/14 04:54:57;;;;;;;3.50;2.83;;;;;;;18.16;40.72;99930.84;7345941;19;20014;-67
2023/05/14 04:57:21;;;;;;;4.22;3.15;;;;;;;17.68;41.78;99931.91;7343210;19;20028;-68
2023/05/14 04:59:46;;;;;;;4.72;2.58;;;;;;;17.73;41.86;99929.59;7341749;19;20085;-67
2023/05/14 05:02:11;;;;;;;6.63;3.35;;;;;;;17.85;41.46;99930.25;7344057;19;20014;-68
2023/05/14 05:04:38;;;;;;;6.63;3.28;;;;;;;18.01;41.31;99935.88;7342953;19;20006;-67
2023/05/14 05:07:02;;;;;;;5.15;2.65;;;;;;;18.32;40.93;99933.69;7343252;19;20018;-66
2023/05/14 05:09:27;;;;;;;5.40;3.20;;;;;;;18.76;40.20;99928.44;7343376;19;20011;-67
2023/05/14 05:11:52;;;;;;;3.70;2.63;;;;;;;19.19;39.82;99927.59;7340632;19;20018;-66
2023/05/14 05:14:17;;;;;;;7.38;2.75;;;;;;;19.55;39.45;99933.81;7342806;19;20039;-69
2023/05/14 05:16:42;;;;;;;7.30;3.25;;;;;;;19.97;39.30;99936.56;7341157;19;20019;-68
2023/05/14 05:19:06;;;;;;;8.07;4.72;;;;;;;20.44;38.58;99933.34;7344816;19;20019;-80
2023/05/14 05:21:31;;;;;;;9.07;3.28;;;;;;;20.83;37.62;99925.47;7339484;19;20139;-69
2023/05/14 05:23:57;;;;;;;3.88;3.15;;;;;;;21.26;37.11;99924.31;7340660;19;20489;-76
2023/05/14 05:26:22;;;;;;;4.22;2.65;;;;;;;21.63;36.11;99924.59;7341012;19;20324;-67
2023/05/14 05:28:47;;;;;;;5.32;3.00;;;;;;;22.02;35.82;99929.22;7341132;19;20462;-72
2023/05/14 05:31:11;;;;;;;5.78;3.40;;;;;;;22.40;35.21;99922.06;7341114;19;20018;-68
2023/05/14 05:33:36;;;;;;;3.10;2.78;;;;;;;22.80;35.13;99927.25;7344260;19;20015;-68
2023/05/14 05:36:02;;;;;;;4.47;3.53;;;;;;;23.28;34.23;99929.75;7343199;19;20010;-68
2023/05/14 05:38:26;;;;;;;6.55;3.05;;;;;;;23.69;33.61;99924.81;7343896;19;20014;-67
2023/05/14 05:40:51;;;;;;;5.80;3.05;;;;;;;24.09;33.19;99920.72;7345609;19;20027;-68
2023/05/14 05:43:16;;;;;;;4.43;3.08;;;;;;;24.54;32.73;99925.09;7346939;19;20014;-69
2023/05/14 05:45:41;;;;;;;5.03;3.60;;;;;;;25.05;31.90;99920.41;7340218;19;20019;-69
2023/05/14 05:48:06;;;;;;;5.75;2.88;;;;;;;25.48;31.25;99907.53;7340487;19;20022;-68
2023/05/14 05:50:31;;;;;;;5.43;3.17;;;;;;;25.70;29.73;99912.94;7342049;19;20018;-70
2023/05/14 05:53:00;;;;;;;4.05;2.88;;;;;;;25.61;28.97;99909.53;7341106;19;20458;-68
2023/05/14 05:55:26;;;;;;;5.20;2.90;;;;;;;25.52;29.16;99913.41;7340387;19;20018;-68
2023/05/14 05:57:50;;;;;;;2.60;2.40;;;;;;;25.44;29.01;99908.09;7341196;19;20014;-67
2023/05/14 06:00:16;;;;;;;7.00;2.95;;;;;;;24.91;29.07;99915.81;7342758;19;20038;-69
2023/05/14 06:02:42;;;;;;;2.65;2.38;;;;;;;24.96;29.23;99914.22;7343468;19;20022;-69
2023/05/14 06:05:09;;;;;;;3.60;2.55;;;;;;;25.37;28.82;99907.22;7344945;19;20022;-68
2023/05/14 06:07:34;;;;;;;3.22;2.60;;;;;;;26.26;28.23;99898.09;7347641;19;20019;-68
2023/05/14 06:09:59;;;;;;;4.55;2.80;;;;;;;26.98;27.67;99897.44;7349365;19;20034;-68
2023/05/14 06:12:24;;;;;;;3.97;2.83;;;;;;;27.83;26.59;99903.94;7348978;19;20019;-68
2023/05/14 06:14:50;;;;;;;6.55;2.80;;;;;;;28.81;26.15;99901.84;7352113;19;20011;-68
2023/05/14 06:17:21;;;;;;;5.57;2.92;;;;;;;29.60;25.09;99906.69;7346750;19;20118;-69
2023/05/14 06:19:45;;;;;;;4.80;2.90;;;;;;;29.72;24.25;99904.88;7348261;19;20022;-67
2023/05/14 06:22:11;;;;;;;5.75;3.00;;;;;;;29.65;24.26;99904.13;7345997;19;20055;-68
2023/05/14 06:24:37;;;;;;;9.00;2.88;;;;;;;30.38;23.51;99898.63;7348300;19;20018;-68
2023/05/14 06:27:02;;;;;;;7.95;3.17;;;;;;;30.65;23.20;99902.72;7349759;19;20013;-69
2023/05/14 06:29:27;;;;;;;3.13;2.83;;;;;;;29.49;23.77;99902.78;7347066;19;20025;-68
2023/05/14 06:31:53;;;;;;;3.28;2.95;;;;;;;28.87;24.18;99901.81;7347079;19;20025;-68
2023/05/14 06:34:18;;;;;;;4.85;3.60;;;;;;;28.57;24.80;99903.44;7346943;19;20011;-69
2023/05/14 06:36:43;;;;;;;7.25;3.00;;;;;;;28.06;25.38;99914.41;7348072;19;20025;-69
2023/05/14 06:39:09;;;;;;;5.20;2.58;;;;;;;26.92;25.91;99903.78;7349703;19;20466;-72
2023/05/14 06:41:33;;;;;;;5.53;2.95;;;;;;;25.85;27.20;99903.56;7345533;19;20326;-73
2023/05/14 06:43:58;;;;;;;4.25;2.50;;;;;;;24.71;27.92;99902.00;7349695;19;20078;-74
2023/05/14 06:46:24;;;;;;;10.07;3.80;;;;;;;23.40;29.06;99907.38;7345189;19;20094;-73
2023/05/14 06:48:49;;;;;;;3.10;2.80;;;;;;;22.06;30.56;99908.84;7348512;19;20014;-73
2023/05/14 06:51:14;;;;;;;6.00;2.72;;;;;;;21.10;32.56;99914.31;7350146;19;20033;-74
2023/05/14 06:53:41;;;;;;;5.57;3.38;;;;;;;21.21;33.23;99914.00;7351310;19;20462;-73
2023/05/14 06:56:06;;;;;;;5.63;3.40;;;;;;;23.15;31.75;99914.06;7353700;19;20018;-72
2023/05/14 06:58:33;;;;;;;3.00;2.70;;;;;;;25.17;28.24;99907.88;7349047;19;20032;-67
2023/05/14 07:00:59;;;;;;;6.68;2.75;;;;;;;27.14;25.85;99917.25;7353130;19;20014;-73
2023/05/14 07:03:24;;;;;;;4.82;3.22;;;;;;;28.24;23.78;99911.81;7350481;19;20006;-72
2023/05/14 07:05:48;;;;;;;10.93;7.30;;;;;;;27.64;23.68;99916.63;7345355;19;20010;-71
2023/05/14 07:08:13;;;;;;;7.18;3.00;;;;;;;26.94;24.48;99909.88;7350784;19;20018;-70
2023/05/14 07:10:38;;;;;;;4.30;2.28;;;;;;;27.23;24.09;99918.72;7350318;19;20041;-71
2023/05/14 07:13:03;;;;;;;6.60;2.75;;;;;;;28.16;23.47;99920.28;7347949;19;20041;-68
2023/05/14 07:15:28;;;;;;;3.22;2.92;;;;;;;29.82;22.10;99909.84;7349933;19;20015;-67
2023/05/14 07:17:54;;;;;;;6.28;2.53;;;;;;;31.87;20.54;99916.81;7348585;19;20071;-68
2023/05/14 07:20:19;;;;;;;4.43;3.47;;;;;;;32.86;18.83;99924.94;7345942;19;20025;-74
2023/05/14 07:22:45;;;;;;;4.05;3.17;;;;;;;33.20;18.65;99915.63;7350273;19;20029;-68
2023/05/14 07:25:10;;;;;;;3.70;2.70;;;;;;;32.66;19.25;99923.47;7352160;19;20018;-72
2023/05/14 07:27:35;;;;;;;7.63;3.00;;;;;;;31.21;19.80;99919.88;7349113;19;20018;-68
2023/05/14 07:30:02;;;;;;;6.63;3.33;;;;;;;29.35;21.39;99936.06;7348512;19;20018;-69
2023/05/14 07:32:31;;;;;;;2.90;2.28;;;;;;;27.58;23.24;99927.59;7349958;19;20023;-70
2023/05/14 07:34:56;;;;;;;3.20;2.90;;;;;;;26.16;25.03;99926.84;7345730;19;20089;-70
2023/05/14 07:37:21;;;;;;;5.20;3.13;;;;;;;25.04;26.42;99939.69;7353798;19;20034;-69
2023/05/14 07:39:46;;;;;;;4.57;2.92;;;;;;;24.06;27.37;99940.16;7354872;19;20022;-72
2023/05/14 07:42:14;;;;;;;8.25;3.67;;;;;;;23.38;28.53;99938.50;7354206;19;20384;-70
2023/05/14 07:44:41;;;;;;;5.25;2.72;;;;;;;22.88;29.14;99936.41;7346275;19;20014;-70
2023/05/14 07:47:09;;;;;;;7.53;3.70;;;;;;;22.78;29.92;99942.94;7355015;19;20018;-69
2023/05/14 07:49:35;;;;;;;6.28;3.28;;;;;;;22.77;29.38;99940.41;7354787;19;20021;-69
2023/05/14 07:52:03;;;;;;;7.55;2.53;;;;;;;22.73;29.17;99941.72;7348804;19;20006;-70
2023/05/14 07:54:30;;;;;;;4.13;2.63;;;;;;;22.58;30.02;99938.94;7351181;19;20116;-70
2023/05/14 07:56:59;;;;;;;5.88;2.72;;;;;;;22.35;30.30;99940.78;7353565;19;20031;-70
2023/05/14 07:59:26;;;;;;;5.55;2.40;;;;;;;22.02;30.62;99937.34;7350215;19;20469;-69
2023/05/14 08:01:57;;;;;;;4.57;2.17;;;;;;;21.85;30.95;99944.69;7351386;19;20018;-70
2023/05/14 08:04:25;;;;;;;4.25;2.75;;;;;;;21.46;31.42;99944.63;7351067;19;20013;-71
2023/05/14 08:06:50;;;;;;;5.03;2.70;;;;;;;21.33;31.89;99952.47;7344099;19;20022;-75
2023/05/14 08:09:16;;;;;;;5.90;3.35;;;;;;;21.75;31.34;99949.47;7346725;19;20010;-71
2023/05/14 08:11:43;;;;;;;2.83;2.22;;;;;;;22.74;29.50;99944.28;7344706;19;20014;-69
2023/05/14 08:14:08;;;;;;;4.07;2.80;;;;;;;23.69;28.57;99949.31;7344131;19;20018;-68
2023/05/14 08:16:33;;;;;;;5.72;3.22;;;;;;;24.22;28.09;99951.75;7345710;19;20018;-67
2023/05/14 08:18:59;;;;;;;8.43;3.38;;;;;;;24.04;27.91;99948.53;7342416;19;20346;-68
2023/05/14 08:21:24;;;;;;;6.15;2.92;;;;;;;23.56;28.14;99947.22;7345583;19;20318;-69
2023/05/14 08:23:49;;;;;;;4.00;2.88;;;;;;;22.84;28.52;99951.38;7345253;19;20108;-67
2023/05/14 08:26:16;;;;;;;2.85;2.22;;;;;;;22.20;29.12;99950.72;7339226;19;20031;-68
2023/05/14 08:28:41;;;;;;;4.70;2.65;;;;;;;21.85;29.62;99944.69;7344141;19;20050;-68
2023/05/14 08:31:05;;;;;;;3.05;2.15;;;;;;;21.64;30.04;99941.72;7340626;19;20014;-68
2023/05/14 08:33:30;;;;;;;3.00;2.33;;;;;;;21.72;30.33;99944.41;7340770;19;20031;-67
2023/05/14 08:35:59;;;;;;;5.63;2.58;;;;;;;21.92;30.98;99948.41;7342736;19;20027;-67
2023/05/14 08:38:23;;;;;;;3.08;2.13;;;;;;;22.05;31.44;99937.88;7340161;19;20482;-69
2023/05/14 08:40:57;;;;;;;8.18;2.88;;;;;;;22.33;30.94;99940.13;7340706;19;20503;-69
2023/05/14 08:43:26;;;;;;;3.65;2.42;;;;;;;22.66;30.46;99941.63;7340546;19;20521;-68
2023/05/14 08:45:57;;;;;;;3.05;2.70;;;;;;;23.12;30.26;99930.78;7339107;19;20018;-67
2023/05/14 08:48:25;;;;;;;6.50;2.90;;;;;;;23.62;29.70;99937.44;7343895;19;20481;-67
2023/05/14 08:50:50;;;;;;;4.18;3.03;;;;;;;24.04;28.84;99932.19;7338872;19;20014;-69
2023/05/14 08:53:15;;;;;;;4.78;2.75;;;;;;;24.26;29.11;99935.88;7340622;19;20085;-70
2023/05/14 08:55:41;;;;;;;2.15;1.98;;;;;;;24.25;27.46;99931.47;7340595;19;20033;-70
2023/05/14 08:58:07;;;;;;;5.18;2.63;;;;;;;24.02;28.56;99928.84;7340385;19;20014;-71
2023/05/14 09:00:32;;;;;;;10.40;2.97;;;;;;;23.66;28.68;99925.16;7341049;19;20091;-70
2023/05/14 09:03:05;;;;;;;3.13;2.80;;;;;;;23.25;29.53;99928.25;7341560;19;20019;-71
2023/05/14 09:05:32;;;;;;;4.88;3.13;;;;;;;22.76;30.16;99922.38;7341555;19;20018;-69
2023/05/14 09:07:57;;;;;;;6.88;3.25;;;;;;;22.17;29.84;99930.19;7341113;19;20025;-69
2023/05/14 09:10:23;;;;;;;4.53;3.58;;;;;;;21.61;30.36;99932.03;7341526;19;20102;-69
2023/05/14 09:12:51;;;;;;;4.55;3.33;;;;;;;21.23;31.18;99939.03;7341149;19;20341;-71
2023/05/14 09:15:17;;;;;;;6.88;2.53;;;;;;;21.18;31.86;99936.00;7342568;19;20007;-71
2023/05/14 09:17:43;;;;;;;16.25;8.57;;;;;;;21.41;31.58;99938.03;7341934;19;20010;-71
2023/05/14 09:20:11;;;;;;;5.15;3.17;;;;;;;22.49;31.28;99929.16;7340260;19;20011;-72
2023/05/14 09:22:38;;;;;;;4.53;2.88;;;;;;;23.30;29.80;99934.00;7342291;19;20095;-71
2023/05/14 09:25:12;;;;;;;9.07;3.05;;;;;;;23.53;29.07;99932.09;7342906;19;20007;-71
2023/05/14 09:27:49;;;;;;;9.00;3.20;;;;;;;23.25;29.62;99930.97;7344034;19;20049;-71
2023/05/14 09:30:19;;;;;;;3.72;2.85;;;;;;;23.05;29.60;99940.66;7343529;19;20018;-70
2023/05/14 09:32:47;;;;;;;5.13;2.58;;;;;;;22.67;29.42;99940.59;7343145;19;20017;-73
2023/05/14 09:35:15;;;;;;;5.90;3.00;;;;;;;22.50;29.90;99939.00;7341560;19;20006;-71
2023/05/14 09:37:42;;;;;;;4.35;2.63;;;;;;;22.51;30.89;99940.69;7343864;19;20047;-70
2023/05/14 09:40:18;;;;;;;2.40;2.20;;;;;;;22.82;30.77;99927.09;7350535;19;20074;-69
2023/05/14 09:42:47;;;;;;;3.58;2.80;;;;;;;23.22;30.84;99930.50;7349015;19;20023;-67
2023/05/14 09:45:13;;;;;;;9.32;5.03;;;;;;;23.39;30.48;99927.44;7350856;19;20029;-68
2023/05/14 09:47:47;;;;;;;5.75;3.20;;;;;;;23.40;31.38;99920.13;7351228;19;20034;-69
2023/05/14 09:50:14;;;;;;;5.05;2.75;;;;;;;23.21;31.30;99926.09;7358262;19;20017;-70
2023/05/14 09:52:43;;;;;;;5.57;2.72;;;;;;;22.85;31.32;99926.72;7348104;19;20022;-68
2023/05/14 09:55:08;;;;;;;2.80;2.58;;;;;;;22.47;32.13;99928.47;7347220;19;20022;-68
2023/05/14 09:57:34;;;;;;;5.10;2.58;;;;;;;22.12;32.22;99929.88;7345302;19;20039;-67
2023/05/14 10:00:00;;;;;;;4.93;2.85;;;;;;;21.92;32.76;99934.81;7348471;19;20014;-68
2023/05/14 10:02:39;;;;;;;6.22;2.85;;;;;;;21.96;33.15;99925.31;7347715;19;20018;-69
2023/05/14 10:05:05;;;;;;;4.82;2.67;;;;;;;22.09;32.01;99925.63;7343876;19;20033;-68
2023/05/14 10:07:44;;;;;;;6.40;3.08;;;;;;;22.15;32.54;99926.78;7346630;19;20025;-66
2023/05/14 10:10:14;;;;;;;4.22;2.55;;;;;;;21.96;32.49;99921.75;7348787;19;20388;-69
2023/05/14 10:12:40;;;;;;;6.97;2.50;;;;;;;21.64;32.69;99926.28;7350661;19;20090;-68
2023/05/14 10:15:17;;;;;;;6.68;3.00;;;;;;;21.53;32.77;99925.78;7346102;19;20011;-68
2023/05/14 10:17:55;;;;;;;5.57;2.88;;;;;;;21.25;33.13;99928.03;7346279;19;20024;-69
2023/05/14 10:20:26;;;;;;;4.55;3.17;;;;;;;21.02;33.66;99927.84;7345277;19;20010;-67
2023/05/14 10:22:53;;;;;;;7.03;2.88;;;;;;;20.82;33.09;99931.91;7348729;19;20037;-68
2023/05/14 10:25:23;;;;;;;9.70;2.90;;;;;;;20.73;34.19;99931.06;7347589;19;20018;-67
2023/05/14 10:27:48;;;;;;;5.22;2.35;;;;;;;20.64;33.48;99926.66;7346890;19;20438;-67
2023/05/14 10:30:20;;;;;;;3.95;2.40;;;;;;;20.72;33.61;99928.50;7350360;19;20018;-67
2023/05/14 10:32:48;;;;;;;2.17;1.98;;;;;;;20.77;33.80;99926.16;7345249;19;20469;-66
2023/05/14 10:35:21;;;;;;;5.65;2.28;;;;;;;21.14;33.06;99931.91;7344417;19;20487;-68
2023/05/14 10:37:52;;;;;;;4.85;2.25;;;;;;;21.38;32.73;99915.66;7347124;19;20015;-68
2023/05/14 10:40:18;;;;;;;2.53;2.33;;;;;;;21.38;32.73;99914.78;7345629;19;20458;-66
2023/05/14 10:42:45;;;;;;;10.60;3.20;;;;;;;21.26;33.32;99910.75;7344088;19;20038;-66
2023/05/14 10:45:15;;;;;;;5.43;3.38;;;;;;;21.16;33.28;99910.91;7345481;19;20023;-68
2023/05/14 10:47:47;;;;;;;3.88;2.33;;;;;;;20.84;33.55;99933.44;7347670;19;20474;-69
2023/05/14 10:50:14;;;;;;;11.27;2.38;;;;;;;20.64;34.09;99932.91;7345237;19;20014;-66
2023/05/14 10:55:15;;;;;;;5.93;2.30;;;;;;;20.09;33.79;99932.53;7349489;19;20022;-68
2023/05/14 10:57:43;;;;;;;2.38;2.17;;;;;;;20.02;33.89;99931.50;7344918;19;20214;-67
2023/05/14 11:00:13;;;;;;;6.30;3.47;;;;;;;20.00;33.66;99927.25;7344511;19;20015;-67
2023/05/14 11:02:43;;;;;;;4.53;2.22;;;;;;;20.14;34.31;99923.94;7343759;19;20006;-67
2023/05/14 11:05:12;;;;;;;11.15;2.67;;;;;;;20.23;34.50;99931.06;7344038;19;20031;-69
2023/05/14 11:07:47;;;;;;;3.00;1.90;;;;;;;20.49;33.67;99926.44;7345531;19;20045;-71
2023/05/14 11:10:17;;;;;;;6.57;2.17;;;;;;;20.72;33.34;99917.69;7345881;19;20012;-72
2023/05/14 11:12:44;;;;;;;3.30;2.28;;;;;;;20.88;33.31;99917.69;7348960;19;20015;-71
2023/05/14 11:15:13;;;;;;;3.58;2.53;;;;;;;20.97;33.31;99913.97;7349507;19;20078;-68
2023/05/14 11:17:45;;;;;;;5.32;2.15;;;;;;;20.92;32.89;99913.63;7347503;19;20014;-66
2023/05/14 11:20:16;;;;;;;3.83;2.28;;;;;;;20.92;33.16;99925.31;7346638;19;20022;-70
2023/05/14 11:22:47;;;;;;;5.40;2.42;;;;;;;20.76;33.18;99922.59;7344606;19;20328;-67
2023/05/14 11:25:14;;;;;;;6.93;1.95;;;;;;;20.58;33.18;99919.19;7344758;19;20026;-68
2023/05/14 11:27:43;;;;;;;24.80;12.60;;;;;;;20.47;33.44;99919.50;7348227;19;20026;-68
2023/05/14 11:30:18;;;;;;;4.70;4.05;;;;;;;20.46;34.18;99918.66;7344692;19;20035;-69
2023/05/14 11:32:45;;;;;;;6.00;3.45;;;;;;;20.30;34.58;99915.88;7344971;19;20031;-68